createdAt,value
2019-02-21T00:00:43.371Z,3.90
2019-02-21T00:05:48.792Z,4.30
2019-02-21T00:10:53.956Z,4.20
2019-02-21T00:15:59.167Z,4.13
2019-02-21T00:21:04.417Z,3.77
2019-02-21T00:26:09.902Z,4.10
2019-02-21T00:31:15.024Z,4.50
2019-02-21T00:36:20.157Z,4.30
2019-02-21T00:41:25.342Z,4.13
2019-02-21T00:46:30.351Z,4.47
2019-02-21T00:51:35.285Z,5.10
2019-02-21T00:56:40.760Z,4.77
2019-02-21T01:01:45.717Z,4.97
2019-02-21T01:06:50.909Z,4.83
2019-02-21T01:11:56.093Z,4.77
2019-02-21T01:17:01.328Z,4.73
2019-02-21T01:22:06.576Z,4.50
2019-02-21T01:27:11.465Z,4.80
2019-02-21T01:32:16.674Z,4.87
2019-02-21T01:37:21.619Z,5.93
2019-02-21T01:42:26.653Z,6.07
2019-02-21T01:47:31.841Z,6.13
2019-02-21T01:52:37.276Z,4.97
2019-02-21T01:57:42.303Z,5.40
2019-02-21T02:02:47.400Z,5.43
2019-02-21T02:07:52.533Z,4.93
2019-02-21T02:12:57.714Z,4.23
2019-02-21T02:18:02.911Z,4.83
2019-02-21T02:23:07.735Z,5.03
2019-02-21T02:28:12.688Z,5.77
2019-02-21T02:33:17.853Z,4.83
2019-02-21T02:38:23.146Z,4.97
2019-02-21T02:43:28.673Z,4.80
2019-02-21T02:48:33.728Z,5.20
2019-02-21T02:53:39.198Z,5.03
2019-02-21T02:58:45.609Z,6.03
2019-02-21T03:03:51.454Z,5.70
2019-02-21T03:08:56.650Z,5.87
2019-02-21T03:14:01.865Z,6.97
2019-02-21T03:19:07.082Z,6.77
2019-02-21T03:24:11.998Z,6.53
2019-02-21T03:29:17.333Z,7.17
2019-02-21T03:34:22.887Z,7.37
2019-02-21T03:39:27.779Z,7.73
2019-02-21T03:44:32.918Z,7.70
2019-02-21T03:49:38.122Z,8.13
2019-02-21T03:54:43.558Z,7.70
2019-02-21T03:59:48.152Z,6.77
2019-02-21T04:04:53.447Z,8.03
2019-02-21T04:09:58.497Z,7.60
2019-02-21T04:15:04.397Z,8.07
2019-02-21T04:20:09.682Z,7.63
2019-02-21T04:25:15.218Z,7.23
2019-02-21T04:30:20.429Z,8.33
2019-02-21T04:35:25.552Z,7.73
2019-02-21T04:40:30.780Z,8.57
2019-02-21T04:45:35.946Z,7.77
2019-02-21T04:50:40.848Z,8.00
2019-02-21T04:55:46.399Z,8.47
2019-02-21T05:00:51.809Z,7.93
2019-02-21T05:05:56.629Z,8.37
2019-02-21T05:11:01.836Z,8.20
2019-02-21T05:16:06.787Z,8.37
2019-02-21T05:21:11.891Z,7.67
2019-02-21T05:26:22.132Z,7.47
2019-02-21T05:31:45.280Z,7.60
2019-02-21T05:37:18.493Z,7.83
2019-02-21T05:42:45.767Z,6.80
2019-02-21T05:48:07.009Z,6.87
2019-02-21T05:53:30.149Z,6.70
2019-02-21T05:58:48.612Z,6.77
2019-02-21T06:04:08.591Z,6.57
2019-02-21T06:09:27.583Z,7.00
2019-02-21T06:14:39.633Z,6.63
2019-02-21T06:20:10.043Z,6.63
2019-02-21T06:25:20.159Z,6.33
2019-02-21T06:30:44.869Z,7.83
2019-02-21T06:35:50.376Z,6.30
2019-02-21T06:40:56.040Z,6.63
2019-02-21T06:46:01.399Z,7.43
2019-02-21T06:51:06.295Z,7.03
2019-02-21T06:56:11.455Z,7.57
2019-02-21T07:01:26.598Z,7.37
2019-02-21T07:06:31.463Z,7.87
2019-02-21T07:11:29.866Z,8.43
2019-02-21T07:16:37.227Z,8.13
2019-02-21T07:21:41.528Z,8.37
2019-02-21T07:26:46.874Z,8.17
2019-02-21T07:31:52.218Z,8.67
2019-02-21T07:36:57.237Z,8.67
2019-02-21T07:42:02.825Z,9.23
2019-02-21T07:47:07.961Z,9.37
2019-02-21T07:52:12.989Z,9.23
2019-02-21T07:57:18.165Z,9.90
2019-02-21T08:02:23.323Z,9.40
2019-02-21T08:07:28.578Z,9.93
2019-02-21T08:12:33.851Z,10.23
2019-02-21T08:17:38.904Z,9.00
2019-02-21T08:22:44.081Z,9.10
2019-02-21T08:27:49.474Z,11.07
2019-02-21T08:33:19.541Z,10.00
2019-02-21T08:38:24.986Z,11.33
2019-02-21T08:43:30.455Z,10.70
2019-02-21T08:48:35.693Z,11.77
2019-02-21T08:53:40.874Z,9.57
2019-02-21T08:58:46.389Z,11.43
2019-02-21T09:03:51.694Z,11.67
2019-02-21T09:08:56.925Z,10.97
2019-02-21T09:14:02.126Z,9.47
2019-02-21T09:19:07.381Z,10.50
2019-02-21T09:24:13.830Z,10.53
2019-02-21T09:29:19.175Z,10.17
2019-02-21T09:34:24.553Z,12.17
2019-02-21T09:39:30.265Z,11.27
2019-02-21T09:44:35.940Z,9.57
2019-02-21T09:49:41.026Z,9.70
2019-02-21T09:54:47.543Z,10.77
2019-02-21T09:59:53.729Z,12.70
2019-02-21T10:05:05.155Z,12.57
2019-02-21T10:10:08.192Z,10.77
2019-02-21T10:15:13.884Z,13.33
2019-02-21T10:20:20.261Z,12.60
2019-02-21T10:25:26.418Z,10.60
2019-02-21T10:30:31.324Z,12.53
2019-02-21T10:35:36.581Z,13.03
2019-02-21T10:40:41.585Z,13.23
2019-02-21T10:45:48.122Z,13.63
2019-02-21T10:50:53.551Z,13.00
2019-02-21T10:55:58.777Z,12.57
2019-02-21T11:01:04.114Z,14.17
2019-02-21T11:06:09.027Z,13.33
2019-02-21T11:11:17.106Z,13.67
2019-02-21T11:16:21.975Z,11.90
2019-02-21T11:21:27.146Z,13.03
2019-02-21T11:26:32.387Z,13.13
2019-02-21T11:31:37.544Z,13.77
2019-02-21T11:36:42.920Z,14.10
2019-02-21T11:41:48.079Z,13.70
2019-02-21T11:46:53.336Z,12.73
2019-02-21T11:51:58.239Z,13.37
2019-02-21T11:57:03.442Z,13.00
2019-02-21T12:02:08.606Z,13.30
2019-02-21T12:07:13.905Z,12.40
2019-02-21T12:12:19.060Z,14.17
2019-02-21T12:17:24.178Z,13.63
2019-02-21T12:22:29.397Z,12.70
2019-02-21T12:27:34.230Z,12.40
2019-02-21T12:32:39.845Z,12.60
2019-02-21T12:37:45.345Z,12.87
2019-02-21T12:42:50.584Z,12.20
2019-02-21T12:47:56.066Z,11.63
2019-02-21T12:53:01.165Z,11.83
2019-02-21T12:58:06.043Z,12.63
2019-02-21T13:03:11.475Z,10.67
2019-02-21T13:08:16.381Z,9.03
2019-02-21T13:13:21.478Z,10.00
2019-02-21T13:18:27.227Z,10.27
2019-02-21T13:23:32.045Z,9.63
2019-02-21T13:28:37.229Z,9.00
2019-02-21T13:33:42.288Z,7.63
2019-02-21T13:38:47.437Z,10.27
2019-02-21T13:43:52.700Z,8.53
2019-02-21T13:48:57.870Z,8.73
2019-02-21T13:54:03.038Z,9.67
2019-02-21T13:59:08.331Z,9.37
2019-02-21T14:04:13.424Z,9.90
2019-02-21T14:09:18.385Z,8.30
2019-02-21T14:14:23.553Z,8.13
2019-02-21T14:19:28.494Z,9.93
2019-02-21T14:24:36.841Z,9.30
2019-02-21T14:29:40.181Z,9.23
2019-02-21T14:34:45.624Z,8.70
2019-02-21T14:39:50.806Z,10.40
2019-02-21T14:44:55.650Z,9.83
2019-02-21T14:50:00.523Z,10.67
2019-02-21T14:55:06.042Z,9.93
2019-02-21T15:00:17.257Z,8.90
2019-02-21T15:05:22.265Z,8.80
2019-02-21T15:10:27.547Z,9.93
2019-02-21T15:15:32.352Z,9.20
2019-02-21T15:20:37.365Z,11.23
2019-02-21T15:25:42.577Z,11.30
2019-02-21T15:30:47.433Z,9.83
2019-02-21T15:35:52.952Z,11.20
2019-02-21T15:40:58.190Z,10.50
2019-02-21T15:46:03.253Z,10.23
2019-02-21T15:51:08.306Z,9.40
2019-02-21T15:56:13.277Z,9.60
2019-02-21T16:01:18.434Z,8.33
2019-02-21T16:06:23.646Z,8.83
2019-02-21T16:11:29.307Z,8.97
2019-02-21T16:16:34.962Z,9.07
2019-02-21T16:21:40.031Z,9.50
2019-02-21T16:26:49.585Z,9.63
2019-02-21T16:31:54.972Z,8.43
2019-02-21T16:37:02.624Z,8.43
2019-02-21T16:42:11.952Z,8.43
2019-02-21T16:47:17.055Z,9.63
2019-02-21T16:52:22.667Z,8.90
2019-02-21T16:57:28.733Z,8.93
2019-02-21T17:03:06.428Z,9.63
2019-02-21T17:08:11.831Z,9.63
2019-02-21T17:13:17.218Z,9.70
2019-02-21T17:18:22.530Z,10.30
2019-02-21T17:23:27.861Z,9.40
2019-02-21T17:28:33.925Z,9.17
2019-02-21T17:33:42.127Z,9.40
2019-02-21T17:38:47.814Z,10.17
2019-02-21T17:43:53.432Z,9.97
2019-02-21T17:48:59.439Z,8.97
2019-02-21T17:54:05.294Z,9.70
2019-02-21T17:59:11.159Z,9.13
2019-02-21T18:04:16.497Z,9.27
2019-02-21T18:09:22.205Z,9.87
2019-02-21T18:14:27.562Z,9.53
2019-02-21T18:19:34.099Z,10.93
2019-02-21T18:24:39.352Z,11.17
2019-02-21T18:29:45.084Z,9.30
2019-02-21T18:34:50.666Z,11.20
2019-02-21T18:39:56.496Z,10.00
2019-02-21T18:45:02.773Z,9.97
2019-02-21T18:50:09.352Z,10.60
2019-02-21T18:55:15.638Z,10.20
2019-02-21T19:00:22.321Z,11.17
2019-02-21T19:05:35.432Z,12.10
2019-02-21T19:10:34.908Z,12.43
2019-02-21T19:15:40.484Z,11.70
2019-02-21T19:20:46.044Z,11.83
2019-02-21T19:25:51.404Z,12.70
2019-02-21T19:31:05.036Z,12.53
2019-02-21T19:36:10.884Z,12.57
2019-02-21T19:41:16.220Z,12.47
2019-02-21T19:46:22.051Z,11.93
2019-02-21T19:51:27.664Z,12.67
2019-02-21T19:56:33.094Z,12.43
2019-02-21T20:01:39.907Z,12.63
2019-02-21T20:06:45.292Z,12.13
2019-02-21T20:11:50.680Z,13.17
2019-02-21T20:16:56.491Z,12.33
2019-02-21T20:22:02.259Z,12.70
2019-02-21T20:27:07.773Z,11.17
2019-02-21T20:32:13.295Z,10.77
2019-02-21T20:37:18.716Z,13.00
2019-02-21T20:42:24.502Z,11.90
2019-02-21T20:47:30.178Z,11.90
2019-02-21T20:52:35.485Z,12.07
2019-02-21T20:57:41.284Z,11.63
2019-02-21T21:02:47.767Z,12.20
2019-02-21T21:07:53.536Z,13.03
2019-02-21T21:12:58.874Z,14.27
2019-02-21T21:18:04.655Z,11.77
2019-02-21T21:23:09.992Z,9.97
2019-02-21T21:28:15.778Z,11.80
2019-02-21T21:33:21.880Z,11.67
2019-02-21T21:38:27.827Z,11.27
2019-02-21T21:43:33.492Z,11.47
2019-02-21T21:48:38.943Z,11.30
2019-02-21T21:53:44.330Z,12.20
2019-02-21T21:58:49.665Z,14.13
2019-02-21T22:03:55.421Z,12.57
2019-02-21T22:09:04.668Z,12.40
2019-02-21T22:14:08.194Z,12.73
2019-02-21T22:19:13.862Z,12.33
2019-02-21T22:24:19.220Z,11.27
2019-02-21T22:29:24.958Z,10.87
2019-02-21T22:34:31.349Z,12.03
2019-02-21T22:39:37.003Z,11.33
2019-02-21T22:44:42.747Z,11.90
2019-02-21T22:49:48.640Z,11.53
2019-02-21T22:54:54.850Z,12.10
2019-02-21T23:00:00.485Z,11.60
2019-02-21T23:05:47.313Z,12.00
2019-02-21T23:10:53.073Z,11.30
2019-02-21T23:15:58.471Z,11.50
2019-02-21T23:21:04.252Z,10.90
2019-02-21T23:26:10.076Z,11.07
2019-02-21T23:31:16.523Z,11.33
2019-02-21T23:36:22.821Z,10.80
2019-02-21T23:41:28.587Z,10.30
2019-02-21T23:46:33.912Z,10.03
2019-02-21T23:51:39.299Z,10.73
2019-02-21T23:56:45.392Z,10.23
